createdAt,value
2019-04-04T00:01:47.797Z,9.22
2019-04-04T00:04:17.521Z,9.27
2019-04-04T00:06:47.666Z,9.24
2019-04-04T00:09:17.764Z,9.33
2019-04-04T00:11:47.912Z,9.23
2019-04-04T00:14:18.153Z,8.98
2019-04-04T00:16:48.748Z,8.95
2019-04-04T00:19:19.489Z,9.05
2019-04-04T00:21:49.598Z,9.03
2019-04-04T00:24:19.728Z,8.86
2019-04-04T00:26:49.837Z,8.78
2019-04-04T00:29:19.979Z,8.62
2019-04-04T00:31:50.306Z,8.53
2019-04-04T00:34:20.537Z,8.44
2019-04-04T00:36:50.770Z,8.53
2019-04-04T00:39:21.258Z,8.17
2019-04-04T00:41:51.416Z,8.24
2019-04-04T00:44:23.121Z,8.27
2019-04-04T00:46:55.102Z,8.35
2019-04-04T00:49:25.280Z,8.20
2019-04-04T00:51:55.498Z,8.15
2019-04-04T00:54:25.685Z,8.07
2019-04-04T00:56:55.843Z,8.06
2019-04-04T00:59:26.043Z,8.08
2019-04-04T01:01:56.990Z,8.00
2019-04-04T01:04:30.746Z,8.11
2019-04-04T01:06:59.568Z,8.14
2019-04-04T01:09:29.929Z,8.16
2019-04-04T01:12:00.381Z,8.20
2019-04-04T01:14:30.559Z,8.10
2019-04-04T01:17:02.032Z,7.92
2019-04-04T01:19:32.549Z,7.33
2019-04-04T01:22:02.685Z,7.60
2019-04-04T01:24:32.880Z,7.67
2019-04-04T01:27:04.164Z,7.48
2019-04-04T01:29:35.220Z,7.47
2019-04-04T01:32:05.370Z,7.44
2019-04-04T01:34:37.775Z,7.33
2019-04-04T01:37:08.963Z,7.23
2019-04-04T01:39:39.038Z,6.91
2019-04-04T01:42:09.156Z,7.03
2019-04-04T01:44:40.142Z,6.89
2019-04-04T01:47:11.323Z,6.92
2019-04-04T01:49:41.411Z,6.85
2019-04-04T01:52:11.504Z,6.79
2019-04-04T01:54:41.617Z,6.73
2019-04-04T01:57:12.289Z,6.66
2019-04-04T01:59:43.931Z,6.60
2019-04-04T02:02:14.137Z,6.50
2019-04-04T02:04:44.223Z,6.33
2019-04-04T02:07:14.294Z,6.48
2019-04-04T02:09:44.422Z,6.39
2019-04-04T02:12:14.547Z,6.40
2019-04-04T02:14:44.672Z,6.22
2019-04-04T02:17:15.000Z,6.24
2019-04-04T02:19:45.370Z,6.09
2019-04-04T02:22:15.428Z,6.08
2019-04-04T02:24:45.496Z,6.09
2019-04-04T02:27:15.568Z,6.01
2019-04-04T02:29:46.192Z,6.02
2019-04-04T02:32:17.621Z,6.09
2019-04-04T02:34:48.931Z,5.99
2019-04-04T02:37:21.202Z,5.95
2019-04-04T02:39:50.787Z,5.92
2019-04-04T02:42:22.245Z,5.95
2019-04-04T02:44:52.616Z,5.91
2019-04-04T02:47:23.025Z,5.90
2019-04-04T02:49:53.093Z,5.78
2019-04-04T02:52:23.171Z,5.69
2019-04-04T02:54:57.166Z,5.78
2019-04-04T02:57:25.031Z,5.77
2019-04-04T02:59:55.079Z,5.72
2019-04-04T03:02:25.192Z,5.69
2019-04-04T03:04:55.522Z,5.95
2019-04-04T03:07:29.850Z,5.86
2019-04-04T03:09:57.362Z,5.85
2019-04-04T03:12:27.455Z,5.73
2019-04-04T03:14:57.528Z,5.85
2019-04-04T03:17:31.485Z,5.53
2019-04-04T03:19:59.724Z,5.55
2019-04-04T03:22:29.812Z,5.54
2019-04-04T03:25:00.347Z,5.66
2019-04-04T03:27:30.432Z,5.56
2019-04-04T03:30:00.530Z,5.47
2019-04-04T03:32:31.563Z,5.35
2019-04-04T03:35:01.723Z,5.30
2019-04-04T03:37:31.963Z,5.23
2019-04-04T03:40:02.011Z,5.26
2019-04-04T03:42:32.244Z,5.18
2019-04-04T03:45:02.296Z,5.16
2019-04-04T03:47:32.372Z,5.12
2019-04-04T03:50:02.472Z,5.10
2019-04-04T03:52:32.568Z,4.91
2019-04-04T03:55:03.710Z,4.88
2019-04-04T03:57:33.761Z,4.89
2019-04-04T04:00:07.044Z,4.95
2019-04-04T04:02:36.223Z,4.93
2019-04-04T04:05:18.408Z,4.92
2019-04-04T04:07:49.085Z,5.04
2019-04-04T04:10:19.181Z,4.77
2019-04-04T04:12:49.229Z,4.90
2019-04-04T04:15:19.268Z,4.91
2019-04-04T04:17:49.334Z,4.73
2019-04-04T04:20:20.478Z,4.58
2019-04-04T04:22:51.524Z,4.62
2019-04-04T04:25:21.702Z,4.26
2019-04-04T04:27:51.797Z,4.38
2019-04-04T04:30:22.256Z,4.51
2019-04-04T04:32:53.112Z,4.39
2019-04-04T04:35:24.631Z,4.37
2019-04-04T04:37:54.678Z,4.57
2019-04-04T04:40:24.775Z,4.41
2019-04-04T04:42:54.826Z,4.70
2019-04-04T04:45:24.895Z,5.00
2019-04-04T04:47:57.077Z,5.19
2019-04-04T04:50:26.742Z,5.27
2019-04-04T04:52:56.853Z,5.43
2019-04-04T04:55:28.220Z,5.37
2019-04-04T04:57:58.786Z,5.33
2019-04-04T05:00:29.157Z,5.60
2019-04-04T05:03:00.653Z,5.78
2019-04-04T05:05:31.934Z,5.82
2019-04-04T05:08:02.089Z,5.81
2019-04-04T05:10:32.415Z,5.79
2019-04-04T05:13:02.638Z,5.74
2019-04-04T05:15:33.226Z,5.45
2019-04-04T05:18:03.572Z,5.47
2019-04-04T05:20:33.625Z,5.49
2019-04-04T05:23:03.727Z,5.46
2019-04-04T05:25:33.844Z,5.60
2019-04-04T05:28:06.187Z,5.64
2019-04-04T05:30:36.233Z,5.50
2019-04-04T05:33:06.374Z,6.09
2019-04-04T05:35:37.861Z,7.38
2019-04-04T05:38:08.126Z,7.76
2019-04-04T05:40:38.283Z,7.57
2019-04-04T05:43:08.728Z,6.85
2019-04-04T05:45:38.876Z,6.32
2019-04-04T05:48:08.918Z,5.78
2019-04-04T05:50:38.999Z,6.15
2019-04-04T05:53:09.093Z,6.53
2019-04-04T05:55:39.811Z,6.46
2019-04-04T05:58:42.894Z,6.33
2019-04-04T06:01:14.396Z,5.91
2019-04-04T06:03:46.994Z,6.03
2019-04-04T06:06:16.313Z,5.67
2019-04-04T06:08:46.527Z,6.00
2019-04-04T06:11:16.620Z,6.34
2019-04-04T06:13:46.696Z,6.75
2019-04-04T06:16:16.774Z,6.60
2019-04-04T06:18:49.156Z,6.66
2019-04-04T06:21:19.248Z,6.75
2019-04-04T06:23:49.401Z,7.16
2019-04-04T06:26:19.455Z,6.91
2019-04-04T06:28:49.565Z,7.97
2019-04-04T06:31:19.726Z,7.98
2019-04-04T06:33:49.914Z,9.40
2019-04-04T06:36:20.136Z,10.59
2019-04-04T06:38:50.257Z,11.54
2019-04-04T06:41:22.300Z,13.06
2019-04-04T06:43:52.391Z,12.10
2019-04-04T06:46:22.935Z,11.07
2019-04-04T06:48:53.099Z,11.09
2019-04-04T06:51:23.183Z,11.52
2019-04-04T06:53:54.457Z,11.36
2019-04-04T06:56:24.575Z,13.38
2019-04-04T06:58:54.703Z,12.92
2019-04-04T07:01:25.444Z,14.62
2019-04-04T07:03:59.077Z,14.70
2019-04-04T07:06:27.356Z,15.44
2019-04-04T07:08:58.186Z,16.65
2019-04-04T07:11:28.607Z,17.68
2019-04-04T07:13:59.783Z,16.93
2019-04-04T07:16:29.924Z,21.18
2019-04-04T07:19:00.307Z,20.81
2019-04-04T07:21:30.432Z,18.26
2019-04-04T07:24:00.521Z,19.12
2019-04-04T07:26:32.181Z,17.15
2019-04-04T07:29:02.711Z,18.02
2019-04-04T07:31:33.513Z,16.32
2019-04-04T07:34:05.938Z,17.61
2019-04-04T07:36:36.028Z,17.92
2019-04-04T07:39:07.358Z,17.52
2019-04-04T07:41:40.028Z,16.95
2019-04-04T07:44:09.238Z,19.60
2019-04-04T07:46:41.309Z,18.56
2019-04-04T07:49:11.556Z,18.66
2019-04-04T07:51:42.953Z,19.00
2019-04-04T07:54:13.419Z,21.83
2019-04-04T07:56:46.864Z,19.85
2019-04-04T07:59:15.342Z,19.23
2019-04-04T08:01:51.070Z,20.26
2019-04-04T08:04:17.611Z,21.67
2019-04-04T08:06:47.786Z,23.63
2019-04-04T08:09:18.007Z,21.10
2019-04-04T08:11:48.081Z,20.83
2019-04-04T08:14:18.319Z,21.37
2019-04-04T08:16:48.386Z,20.20
2019-04-04T08:19:18.559Z,21.02
2019-04-04T08:21:48.658Z,21.44
2019-04-04T08:24:18.867Z,20.11
2019-04-04T08:26:50.141Z,25.29
2019-04-04T08:29:20.216Z,23.53
2019-04-04T08:31:50.323Z,25.12
2019-04-04T08:34:20.396Z,25.33
2019-04-04T08:36:50.473Z,27.55
2019-04-04T08:39:20.544Z,26.06
2019-04-04T08:41:52.496Z,26.71
2019-04-04T08:44:23.680Z,23.78
2019-04-04T08:46:55.723Z,24.33
2019-04-04T08:49:25.940Z,28.94
2019-04-04T08:51:56.059Z,25.41
2019-04-04T08:54:26.440Z,25.25
2019-04-04T08:56:56.845Z,27.77
2019-04-04T08:59:26.931Z,24.98
2019-04-04T09:01:56.994Z,23.27
2019-04-04T09:04:27.377Z,27.60
2019-04-04T09:06:58.118Z,23.67
2019-04-04T09:09:28.239Z,27.01
2019-04-04T09:11:58.308Z,31.90
2019-04-04T09:14:28.438Z,26.56
2019-04-04T09:16:58.510Z,32.45
2019-04-04T09:19:29.695Z,27.81
2019-04-04T09:21:59.778Z,28.10
2019-04-04T09:24:29.881Z,27.34
2019-04-04T09:26:59.969Z,29.53
2019-04-04T09:29:30.076Z,29.81
2019-04-04T09:32:00.302Z,27.81
2019-04-04T09:34:30.373Z,30.07
2019-04-04T09:37:00.454Z,32.54
2019-04-04T09:39:30.617Z,27.96
2019-04-04T09:42:01.310Z,28.51
2019-04-04T09:44:31.386Z,30.16
2019-04-04T09:47:05.666Z,31.98
2019-04-04T09:49:33.522Z,29.63
2019-04-04T09:52:03.921Z,29.18
2019-04-04T09:54:34.535Z,31.44
2019-04-04T09:57:04.638Z,28.64
2019-04-04T09:59:34.919Z,32.13
2019-04-04T10:02:05.002Z,30.94
2019-04-04T10:04:35.454Z,29.31
2019-04-04T10:07:05.639Z,28.92
2019-04-04T10:09:35.995Z,30.80
2019-04-04T10:12:06.121Z,30.06
2019-04-04T10:14:36.540Z,31.71
2019-04-04T10:17:06.681Z,33.07
2019-04-04T10:19:37.066Z,32.29
2019-04-04T10:22:07.151Z,28.74
2019-04-04T10:24:37.502Z,28.60
2019-04-04T10:27:07.727Z,31.44
2019-04-04T10:29:37.859Z,32.32
2019-04-04T10:32:07.930Z,32.18
2019-04-04T10:34:38.151Z,28.84
2019-04-04T10:37:08.284Z,30.51
2019-04-04T10:39:38.411Z,30.59
2019-04-04T10:42:08.756Z,30.25
2019-04-04T10:44:38.836Z,32.25
2019-04-04T10:47:09.926Z,31.55
2019-04-04T10:49:40.025Z,31.57
2019-04-04T10:52:10.205Z,32.04
2019-04-04T10:54:40.378Z,32.54
2019-04-04T10:57:10.551Z,30.32
2019-04-04T10:59:40.621Z,33.84
2019-04-04T11:02:10.755Z,32.51
2019-04-04T11:04:40.827Z,30.97
2019-04-04T11:07:11.208Z,33.09
2019-04-04T11:09:42.423Z,30.02
2019-04-04T11:12:12.606Z,30.12
2019-04-04T11:14:42.828Z,34.10
2019-04-04T11:17:13.874Z,38.96
2019-04-04T11:19:44.089Z,33.84
2019-04-04T11:22:14.169Z,32.65
2019-04-04T11:24:44.564Z,31.01
2019-04-04T11:27:17.337Z,31.62
2019-04-04T11:29:46.458Z,31.69
2019-04-04T11:32:16.926Z,30.84
2019-04-04T11:34:53.028Z,32.87
2019-04-04T11:37:19.227Z,34.67
2019-04-04T11:39:54.751Z,32.98
2019-04-04T11:42:21.410Z,35.35
2019-04-04T11:44:51.528Z,31.66
2019-04-04T11:47:21.635Z,35.04
2019-04-04T11:49:51.991Z,33.25
2019-04-04T11:52:23.320Z,33.64
2019-04-04T11:54:59.005Z,33.97
2019-04-04T11:57:29.160Z,35.41
2019-04-04T11:59:59.782Z,34.24
2019-04-04T12:02:32.767Z,35.57
2019-04-04T12:05:04.193Z,34.95
2019-04-04T12:07:34.283Z,34.43
2019-04-04T12:10:07.788Z,32.67
2019-04-04T12:12:36.693Z,32.30
2019-04-04T12:15:06.992Z,32.64
2019-04-04T12:17:37.159Z,37.78
